Time;durP1;ratioP1;P1;durP2;ratioP2;P2;SDS_P1;SDS_P2;PMS_P1;PMS_P2;Temp;Humidity;BMP_temperature;BMP_pressure;BME280_temperature;BME280_humidity;BME280_pressure;Samples;Min_cycle;Max_cycle;Signal;HPM_P1;HPM_P2
2021/06/21 00:00:08;;;;;;;7.57;5.65;;;19.60;99.90;;;;;;5051185;28;20265;-75
2021/06/21 00:02:35;;;;;;;6.55;4.90;;;19.50;99.90;;;;;;5050623;28;20203;-75
2021/06/21 00:05:03;;;;;;;8.85;6.53;;;19.40;99.90;;;;;;5051340;28;20214;-75
2021/06/21 00:07:31;;;;;;;14.45;6.18;;;19.40;99.90;;;;;;5051100;28;20207;-74
2021/06/21 00:09:58;;;;;;;8.35;5.80;;;19.40;99.90;;;;;;5050577;28;20272;-75
2021/06/21 00:12:25;;;;;;;7.35;5.53;;;19.50;99.90;;;;;;5050475;28;20246;-74
2021/06/21 00:14:52;;;;;;;7.57;6.03;;;19.40;99.90;;;;;;5050662;28;20657;-74
2021/06/21 00:17:19;;;;;;;9.35;4.88;;;19.40;99.90;;;;;;5050169;28;20203;-75
2021/06/21 00:19:46;;;;;;;8.23;6.50;;;19.20;99.90;;;;;;5050467;28;20203;-74
2021/06/21 00:22:14;;;;;;;6.65;5.40;;;19.20;99.90;;;;;;5050686;28;20218;-73
2021/06/21 00:24:44;;;;;;;7.97;4.90;;;19.20;99.90;;;;;;5050508;28;20234;-74
2021/06/21 00:27:11;;;;;;;9.82;4.97;;;19.20;99.90;;;;;;5050506;28;20294;-73
2021/06/21 00:29:38;;;;;;;7.35;4.68;;;19.20;99.90;;;;;;5050307;28;20210;-73
2021/06/21 00:32:05;;;;;;;6.65;5.47;;;19.20;99.90;;;;;;5050211;28;20223;-74
2021/06/21 00:34:33;;;;;;;5.68;5.03;;;19.20;99.90;;;;;;5050793;28;20207;-74
2021/06/21 00:37:00;;;;;;;6.95;4.40;;;19.20;99.90;;;;;;5050186;28;20210;-74
2021/06/21 00:39:27;;;;;;;9.38;4.25;;;19.20;99.90;;;;;;5050805;28;20580;-73
2021/06/21 00:41:55;;;;;;;9.48;4.90;;;19.10;99.90;;;;;;5049878;28;20645;-73
2021/06/21 00:44:22;;;;;;;7.10;5.00;;;19.00;99.90;;;;;;5050895;28;20203;-74
2021/06/21 00:46:50;;;;;;;6.72;4.90;;;19.00;99.90;;;;;;5050277;28;20207;-74
2021/06/21 00:49:17;;;;;;;5.05;4.22;;;19.00;99.90;;;;;;5050493;28;20203;-74
2021/06/21 00:51:44;;;;;;;8.70;4.40;;;18.90;99.90;;;;;;5049734;28;20783;-74
2021/06/21 00:54:11;;;;;;;5.57;4.72;;;18.80;99.90;;;;;;5049940;28;20563;-74
2021/06/21 00:56:38;;;;;;;6.57;5.68;;;18.90;99.90;;;;;;5049933;28;20268;-74
2021/06/21 00:59:07;;;;;;;9.43;4.50;;;18.90;99.90;;;;;;5050421;28;20207;-74
2021/06/21 01:01:34;;;;;;;7.97;4.20;;;18.90;99.90;;;;;;5050825;28;20215;-74
2021/06/21 01:04:02;;;;;;;7.10;4.43;;;18.80;99.90;;;;;;5050482;28;20701;-74
2021/06/21 01:06:29;;;;;;;4.55;3.53;;;18.90;99.90;;;;;;5049849;28;20666;-74
2021/06/21 01:08:57;;;;;;;6.43;3.50;;;18.90;99.90;;;;;;5049581;28;20268;-73
2021/06/21 01:11:35;;;;;;;6.15;4.43;;;18.90;99.90;;;;;;5049970;28;20214;-73
2021/06/21 01:14:14;;;;;;;7.55;4.32;;;18.80;99.90;;;;;;5050369;28;20670;-74
2021/06/21 01:16:45;;;;;;;5.38;3.25;;;18.90;99.90;;;;;;5049793;28;20653;-75
2021/06/21 01:19:22;;;;;;;6.35;3.15;;;18.90;99.90;;;;;;5049939;28;20199;-75
2021/06/21 01:22:15;;;;;;;7.22;3.40;;;18.80;99.90;;;;;;5049296;28;20815;-72
2021/06/21 01:25:21;;;;;;;10.27;3.70;;;18.80;99.90;;;;;;5049949;28;20210;-74
2021/06/21 01:27:55;;;;;;;10.25;4.05;;;18.70;99.90;;;;;;5035403;28;20264;-74
2021/06/21 01:30:27;;;;;;;4.22;3.03;;;18.80;99.90;;;;;;5053869;28;20261;-74
2021/06/21 01:32:59;;;;;;;6.35;3.65;;;18.70;99.90;;;;;;5053703;28;20227;-75
2021/06/21 01:35:32;;;;;;;7.47;4.68;;;18.80;99.90;;;;;;5053648;28;20206;-75
2021/06/21 01:38:04;;;;;;;8.05;3.33;;;18.80;99.90;;;;;;5053427;28;20575;-75
2021/06/21 01:40:38;;;;;;;6.85;3.00;;;18.70;99.90;;;;;;5054078;28;20199;-74
2021/06/21 01:43:07;;;;;;;6.95;3.63;;;18.70;99.90;;;;;;5054029;28;20215;-75
2021/06/21 01:45:37;;;;;;;7.70;3.38;;;18.70;99.90;;;;;;5053906;28;20268;-75
2021/06/21 01:48:07;;;;;;;5.53;2.78;;;18.50;99.90;;;;;;5054176;28;20211;-76
2021/06/21 01:50:35;;;;;;;4.53;3.40;;;18.40;99.90;;;;;;5053333;28;20256;-74
2021/06/21 01:53:07;;;;;;;4.63;3.25;;;18.50;99.90;;;;;;5046265;28;20276;-74
2021/06/21 01:55:37;;;;;;;7.80;3.50;;;18.40;99.90;;;;;;5053885;28;20664;-74
2021/06/21 01:58:06;;;;;;;4.95;3.80;;;18.30;99.90;;;;;;5053804;28;20265;-74
2021/06/21 02:00:33;;;;;;;4.78;3.00;;;18.30;99.90;;;;;;5053733;28;20253;-74
2021/06/21 02:03:01;;;;;;;4.88;3.67;;;18.30;99.90;;;;;;5053562;28;20289;-74
2021/06/21 02:05:33;;;;;;;4.95;3.45;;;18.40;99.90;;;;;;5053280;28;20253;-75
2021/06/21 02:08:01;;;;;;;6.45;3.35;;;18.40;99.90;;;;;;5053697;28;20203;-75
2021/06/21 02:10:32;;;;;;;8.00;3.40;;;18.40;99.90;;;;;;5053125;28;20249;-75
2021/06/21 02:13:00;;;;;;;4.95;2.58;;;18.40;99.90;;;;;;5052737;28;20238;-75
2021/06/21 02:15:29;;;;;;;8.48;3.20;;;18.50;99.90;;;;;;5053217;28;20211;-75
2021/06/21 02:17:56;;;;;;;8.68;4.95;;;18.50;99.90;;;;;;5052517;28;20272;-74
2021/06/21 02:20:26;;;;;;;7.43;4.15;;;18.50;99.90;;;;;;5053386;28;20215;-74
2021/06/21 02:22:55;;;;;;;10.20;4.82;;;18.40;99.90;;;;;;5052702;28;20265;-75
2021/06/21 02:25:22;;;;;;;4.25;3.67;;;18.40;99.90;;;;;;5053267;28;20214;-75
2021/06/21 02:27:50;;;;;;;8.27;4.38;;;18.30;99.90;;;;;;5052601;28;20336;-75
2021/06/21 02:30:17;;;;;;;9.13;5.18;;;18.30;99.90;;;;;;5052481;28;20203;-76
2021/06/21 02:32:47;;;;;;;5.00;4.15;;;18.30;99.90;;;;;;5052379;28;20234;-76
2021/06/21 02:35:17;;;;;;;5.18;4.55;;;18.30;99.90;;;;;;5052680;28;20264;-76
2021/06/21 02:37:44;;;;;;;6.50;4.78;;;18.20;99.90;;;;;;5052624;28;20268;-76
2021/06/21 02:40:15;;;;;;;12.38;4.75;;;18.20;99.90;;;;;;5051843;28;20257;-76
2021/06/21 02:42:43;;;;;;;9.43;4.93;;;18.20;99.90;;;;;;5052237;28;20214;-75
2021/06/21 02:45:11;;;;;;;8.30;3.90;;;18.10;99.90;;;;;;5052291;28;20674;-75
2021/06/21 02:47:39;;;;;;;11.15;4.53;;;18.00;99.90;;;;;;5051977;28;20215;-75
2021/06/21 02:50:08;;;;;;;8.10;3.90;;;18.10;99.90;;;;;;5052662;28;20256;-74
2021/06/21 02:52:44;;;;;;;8.02;4.40;;;18.10;99.90;;;;;;5052415;28;20234;-74
2021/06/21 02:55:20;;;;;;;6.35;5.15;;;18.00;99.90;;;;;;5052158;28;20666;-75
2021/06/21 02:57:55;;;;;;;7.25;5.07;;;18.00;99.90;;;;;;5052181;28;20210;-75
2021/06/21 03:00:23;;;;;;;6.75;4.30;;;18.00;99.90;;;;;;5052401;28;20210;-75
2021/06/21 03:02:51;;;;;;;10.98;4.35;;;18.10;99.90;;;;;;5051555;28;20206;-74
2021/06/21 03:05:19;;;;;;;6.93;3.97;;;18.00;99.90;;;;;;5052094;28;20210;-74
2021/06/21 03:07:49;;;;;;;6.20;4.70;;;18.00;99.90;;;;;;5051767;28;20260;-75
2021/06/21 03:10:19;;;;;;;5.25;4.40;;;18.00;99.90;;;;;;5052039;28;20301;-74
2021/06/21 03:12:47;;;;;;;15.27;5.57;;;17.80;99.90;;;;;;5051684;28;20238;-75
2021/06/21 03:15:18;;;;;;;6.78;5.15;;;17.80;99.90;;;;;;5052268;28;20211;-75
2021/06/21 03:17:45;;;;;;;9.80;5.70;;;17.70;99.90;;;;;;5050988;28;20632;-76
2021/06/21 03:20:13;;;;;;;9.63;5.05;;;17.70;99.90;;;;;;5051901;28;20220;-76
2021/06/21 03:22:44;;;;;;;8.00;5.53;;;17.70;99.90;;;;;;5050264;28;20215;-76
2021/06/21 03:25:12;;;;;;;8.48;5.65;;;17.60;99.90;;;;;;5042733;28;20666;-75
2021/06/21 03:27:41;;;;;;;14.25;5.72;;;17.60;99.90;;;;;;5051446;28;20227;-76
2021/06/21 03:30:12;;;;;;;12.40;6.57;;;17.60;99.90;;;;;;5051349;28;20218;-77
2021/06/21 03:32:42;;;;;;;10.52;6.53;;;17.70;99.90;;;;;;5051226;28;20257;-76
2021/06/21 03:35:12;;;;;;;7.43;6.18;;;17.80;99.90;;;;;;5051701;28;20207;-77
2021/06/21 03:37:39;;;;;;;8.30;5.57;;;17.90;99.90;;;;;;5051568;28;20265;-76
2021/06/21 03:40:09;;;;;;;5.63;4.80;;;17.90;99.90;;;;;;5051431;28;20284;-75
2021/06/21 03:42:36;;;;;;;10.63;5.45;;;18.00;99.90;;;;;;5051179;28;20215;-75
2021/06/21 03:45:06;;;;;;;9.48;5.75;;;18.00;99.90;;;;;;5051339;28;20206;-75
2021/06/21 03:47:34;;;;;;;11.50;6.68;;;17.80;99.90;;;;;;5052093;28;20207;-75
2021/06/21 03:50:01;;;;;;;12.65;5.93;;;17.80;99.90;;;;;;5051567;28;20207;-75
2021/06/21 03:52:28;;;;;;;9.48;5.82;;;17.90;99.90;;;;;;5051510;28;20604;-74
2021/06/21 03:55:07;;;;;;;5.95;5.38;;;17.80;99.90;;;;;;5050942;28;20268;-75
2021/06/21 03:57:35;;;;;;;6.75;5.38;;;17.80;99.90;;;;;;5051718;28;20198;-75
2021/06/21 04:00:02;;;;;;;10.10;5.93;;;17.90;99.90;;;;;;5051044;28;20214;-75
2021/06/21 04:02:31;;;;;;;5.40;4.90;;;17.80;99.90;;;;;;5051221;28;20257;-76
2021/06/21 04:04:58;;;;;;;6.30;4.82;;;17.80;99.90;;;;;;5050946;28;20214;-76
2021/06/21 04:07:25;;;;;;;6.57;4.68;;;17.70;99.90;;;;;;5051074;28;20221;-76
2021/06/21 04:09:52;;;;;;;8.23;4.70;;;17.80;99.90;;;;;;5050598;28;20210;-73
2021/06/21 04:12:19;;;;;;;10.20;5.07;;;17.90;99.90;;;;;;5050927;28;20207;-74
2021/06/21 04:14:46;;;;;;;8.98;6.28;;;17.80;99.90;;;;;;5050416;28;20262;-74
2021/06/21 04:17:13;;;;;;;8.27;4.72;;;17.70;99.90;;;;;;5051155;28;20207;-76
2021/06/21 04:19:42;;;;;;;7.05;4.80;;;17.70;99.90;;;;;;5050407;28;20244;-75
2021/06/21 04:22:10;;;;;;;7.93;4.90;;;17.80;99.90;;;;;;5050861;28;20210;-74
2021/06/21 04:24:37;;;;;;;12.13;5.68;;;17.90;99.90;;;;;;5048388;28;20594;-74
2021/06/21 04:27:05;;;;;;;6.38;5.25;;;18.00;99.90;;;;;;5050097;28;20203;-74
2021/06/21 04:29:32;;;;;;;8.18;4.93;;;18.00;99.90;;;;;;5050903;28;20566;-74
2021/06/21 04:31:59;;;;;;;8.82;5.03;;;17.90;99.90;;;;;;5050583;28;20199;-74
2021/06/21 04:34:26;;;;;;;9.32;5.05;;;18.00;99.90;;;;;;5054614;28;20268;-75
2021/06/21 04:36:55;;;;;;;9.05;5.20;;;17.90;99.90;;;;;;5048503;28;20207;-75
2021/06/21 04:39:22;;;;;;;8.45;5.05;;;18.00;99.90;;;;;;5050636;28;20211;-74
2021/06/21 04:41:49;;;;;;;9.18;5.35;;;18.00;99.90;;;;;;5049960;28;20206;-76
2021/06/21 04:44:16;;;;;;;7.70;4.93;;;18.00;99.90;;;;;;5050524;28;20257;-75
2021/06/21 04:46:43;;;;;;;9.60;5.50;;;18.00;99.90;;;;;;5050052;28;20215;-74
2021/06/21 04:49:12;;;;;;;9.43;5.93;;;18.10;99.90;;;;;;5050383;28;20206;-75
2021/06/21 04:51:41;;;;;;;8.88;4.45;;;18.10;99.90;;;;;;5049450;28;20294;-75
2021/06/21 04:54:10;;;;;;;8.23;5.28;;;18.00;99.90;;;;;;5050334;28;20277;-75
2021/06/21 04:56:37;;;;;;;13.65;6.28;;;18.10;99.90;;;;;;5049737;28;20285;-78
2021/06/21 04:59:05;;;;;;;8.13;3.95;;;18.40;99.90;;;;;;5050712;28;20408;-79
2021/06/21 05:01:32;;;;;;;8.38;5.90;;;18.40;99.90;;;;;;5050689;28;20260;-77
2021/06/21 05:04:00;;;;;;;12.43;4.75;;;18.40;99.90;;;;;;5053317;28;20215;-79
2021/06/21 05:06:28;;;;;;;11.65;4.47;;;18.40;99.90;;;;;;5054645;28;20238;-76
2021/06/21 05:08:57;;;;;;;5.95;4.22;;;18.50;99.90;;;;;;5054011;28;20218;-75
2021/06/21 05:11:25;;;;;;;9.07;4.82;;;18.50;99.90;;;;;;5054595;28;20214;-74
2021/06/21 05:13:53;;;;;;;6.22;3.92;;;18.60;99.90;;;;;;5053816;28;20641;-76
2021/06/21 05:16:20;;;;;;;7.68;4.60;;;18.50;99.90;;;;;;5054356;28;20207;-77
2021/06/21 05:18:47;;;;;;;8.13;4.78;;;18.50;99.90;;;;;;5053866;28;20230;-76
2021/06/21 05:21:14;;;;;;;8.55;3.75;;;18.70;99.90;;;;;;5049944;28;20252;-77
2021/06/21 05:23:41;;;;;;;8.27;4.50;;;18.70;99.90;;;;;;5053870;28;20551;-76
2021/06/21 05:26:08;;;;;;;9.40;4.03;;;18.60;99.90;;;;;;5053850;28;20206;-77
2021/06/21 05:28:36;;;;;;;9.65;4.55;;;18.70;99.90;;;;;;5058391;28;20597;-76
2021/06/21 05:31:04;;;;;;;12.07;4.00;;;18.90;99.90;;;;;;5054540;28;20264;-77
2021/06/21 05:33:31;;;;;;;8.35;3.95;;;19.10;99.90;;;;;;5052947;28;20714;-75
2021/06/21 05:35:58;;;;;;;10.48;5.00;;;19.10;99.90;;;;;;5052950;28;20218;-76
2021/06/21 05:38:25;;;;;;;9.65;4.10;;;19.10;99.90;;;;;;5053048;28;20729;-78
2021/06/21 05:40:52;;;;;;;8.10;3.75;;;19.20;99.90;;;;;;5053689;28;20218;-78
2021/06/21 05:43:19;;;;;;;6.18;4.47;;;19.40;99.90;;;;;;5053511;28;20222;-81
2021/06/21 05:45:47;;;;;;;7.63;4.22;;;19.40;99.90;;;;;;5053231;28;20264;-77
2021/06/21 05:48:14;;;;;;;5.57;4.22;;;19.30;99.90;;;;;;5052421;28;20211;-78
2021/06/21 05:50:42;;;;;;;11.18;5.70;;;19.30;99.90;;;;;;5050737;28;20199;-77
2021/06/21 05:53:09;;;;;;;12.70;4.50;;;19.50;99.90;;;;;;5049835;28;20285;-85
2021/06/21 05:55:36;;;;;;;8.38;4.13;;;19.50;99.90;;;;;;5038303;28;20253;-75
2021/06/21 05:58:03;;;;;;;6.13;3.92;;;19.40;99.90;;;;;;5052173;28;20253;-76
2021/06/21 06:00:31;;;;;;;7.18;4.40;;;19.40;99.90;;;;;;5063035;28;20277;-79
2021/06/21 06:02:59;;;;;;;9.75;4.10;;;19.40;99.90;;;;;;5052008;28;20214;-75
2021/06/21 06:05:26;;;;;;;11.95;3.55;;;19.60;99.90;;;;;;5047442;28;20229;-75
2021/06/21 06:07:53;;;;;;;10.88;3.63;;;19.70;99.90;;;;;;5051925;28;20210;-75
2021/06/21 06:10:20;;;;;;;4.18;2.10;;;19.70;99.90;;;;;;5047048;28;20222;-75
2021/06/21 06:12:48;;;;;;;7.90;3.97;;;19.70;99.90;;;;;;5048512;28;20199;-76
2021/06/21 06:15:17;;;;;;;7.35;3.97;;;19.60;99.90;;;;;;5047973;28;20231;-75
2021/06/21 06:17:44;;;;;;;4.28;2.97;;;19.70;99.90;;;;;;5050524;28;20257;-75
2021/06/21 06:20:13;;;;;;;12.20;4.65;;;19.80;99.90;;;;;;5051400;28;20615;-82
2021/06/21 06:22:41;;;;;;;13.02;5.70;;;19.80;99.90;;;;;;5047310;28;20202;-81
2021/06/21 06:25:09;;;;;;;9.07;4.88;;;19.90;99.90;;;;;;5051217;28;20637;-78
2021/06/21 06:27:38;;;;;;;8.52;4.57;;;20.00;99.90;;;;;;5042054;28;20651;-75
2021/06/21 06:30:06;;;;;;;3.97;2.85;;;20.20;99.90;;;;;;5052774;28;20207;-76
2021/06/21 06:32:35;;;;;;;7.15;2.92;;;20.50;99.90;;;;;;5052791;28;20211;-76
2021/06/21 06:35:02;;;;;;;7.20;3.33;;;20.80;99.90;;;;;;5052580;28;20229;-81
2021/06/21 06:37:30;;;;;;;8.38;4.40;;;20.80;99.90;;;;;;5051319;28;20261;-74
2021/06/21 06:39:57;;;;;;;8.73;3.53;;;20.60;99.90;;;;;;5047095;28;20206;-78
2021/06/21 06:42:24;;;;;;;4.63;3.33;;;20.80;99.90;;;;;;5058592;28;20210;-86
2021/06/21 06:44:51;;;;;;;5.72;3.45;;;20.90;99.90;;;;;;5047456;28;20922;-74
2021/06/21 06:47:18;;;;;;;7.22;6.45;;;20.60;99.90;;;;;;5052276;28;20215;-76
2021/06/21 06:49:46;;;;;;;3.65;3.05;;;20.80;99.90;;;;;;5051775;28;20673;-75
2021/06/21 06:52:15;;;;;;;10.30;3.42;;;21.30;99.90;;;;;;5048609;28;20203;-75
2021/06/21 06:56:57;;;;;;;9.13;3.58;;;21.60;99.90;;;;;;5051450;28;20332;-77
2021/06/21 06:57:33;;;;;;;5.82;2.25;;;21.20;99.90;;;;;;5050243;28;20209;-81
2021/06/21 07:00:01;;;;;;;4.68;1.90;;;21.40;99.90;;;;;;5047002;28;20199;-78
2021/06/21 07:02:28;;;;;;;13.48;2.17;;;21.50;99.90;;;;;;5048762;28;20214;-79
2021/06/21 07:04:55;;;;;;;6.38;2.75;;;21.80;99.90;;;;;;5051883;28;20268;-77
2021/06/21 07:07:22;;;;;;;4.35;2.40;;;21.90;99.90;;;;;;5051902;28;21360;-81
2021/06/21 07:09:51;;;;;;;6.50;4.32;;;21.70;99.90;;;;;;5050283;28;20245;-78
2021/06/21 07:12:18;;;;;;;2.25;1.10;;;21.70;99.90;;;;;;5047980;28;20245;-75
2021/06/21 07:14:45;;;;;;;3.53;2.75;;;21.60;99.90;;;;;;5049743;28;20280;-75
2021/06/21 07:17:12;;;;;;;3.08;1.75;;;21.60;99.90;;;;;;5051649;28;20215;-77
2021/06/21 07:19:39;;;;;;;4.72;2.90;;;21.80;99.90;;;;;;5051035;28;20209;-76
2021/06/21 07:22:07;;;;;;;4.68;2.60;;;21.80;99.90;;;;;;5051793;28;20206;-77
2021/06/21 07:24:34;;;;;;;6.50;5.25;;;21.80;99.90;;;;;;5047761;28;20306;-78
2021/06/21 07:27:05;;;;;;;8.63;2.53;;;21.90;99.90;;;;;;5050759;28;20203;-79
2021/06/21 07:29:32;;;;;;;7.40;3.83;;;22.30;99.90;;;;;;5050313;28;20624;-77
2021/06/21 07:31:59;;;;;;;4.00;2.50;;;22.60;99.90;;;;;;5050567;28;20260;-80
2021/06/21 07:34:26;;;;;;;9.07;3.10;;;22.80;99.90;;;;;;5051591;28;20235;-77
2021/06/21 07:36:53;;;;;;;6.82;2.88;;;22.40;99.90;;;;;;5050895;28;20207;-78
2021/06/21 07:39:20;;;;;;;6.95;3.67;;;22.70;99.90;;;;;;5051830;28;20210;-80
2021/06/21 07:41:48;;;;;;;10.63;7.60;;;23.30;99.90;;;;;;5050809;28;20210;-77
2021/06/21 07:44:17;;;;;;;13.73;8.35;;;24.30;99.90;;;;;;5042752;28;20227;-75
2021/06/21 07:46:45;;;;;;;7.82;5.30;;;24.00;99.90;;;;;;5050671;28;20727;-76
2021/06/21 07:49:12;;;;;;;12.05;9.73;;;23.70;99.90;;;;;;5049981;28;20293;-79
2021/06/21 07:51:40;;;;;;;6.63;2.40;;;23.70;99.90;;;;;;5049660;28;20300;-82
2021/06/21 07:54:07;;;;;;;4.10;2.45;;;24.70;99.90;;;;;;5050440;28;20277;-80
2021/06/21 07:56:34;;;;;;;4.38;2.83;;;25.40;99.90;;;;;;5035013;28;20204;-80
2021/06/21 07:59:01;;;;;;;9.35;6.00;;;25.10;99.90;;;;;;5050675;28;20203;-79
2021/06/21 08:01:30;;;;;;;13.63;4.28;;;24.80;99.90;;;;;;5039831;28;20208;-83
2021/06/21 08:03:57;;;;;;;5.47;4.78;;;24.40;99.90;;;;;;5046710;28;20613;-78
2021/06/21 08:06:24;;;;;;;14.32;13.18;;;24.10;99.90;;;;;;5049729;28;20214;-78
2021/06/21 08:08:51;;;;;;;6.07;3.28;;;23.80;99.90;;;;;;5043720;28;20210;-81
2021/06/21 08:11:18;;;;;;;15.85;9.38;;;24.00;99.90;;;;;;5049719;28;20199;-81
2021/06/21 08:13:45;;;;;;;8.70;3.05;;;24.10;99.90;;;;;;5041981;28;20203;-82
2021/06/21 08:16:12;;;;;;;8.05;3.90;;;24.30;99.90;;;;;;5050777;28;20203;-82
2021/06/21 08:18:40;;;;;;;8.30;4.50;;;24.30;99.90;;;;;;5049881;28;20202;-80
2021/06/21 08:21:07;;;;;;;11.30;3.67;;;23.90;99.90;;;;;;5050474;28;20595;-81
2021/06/21 08:23:35;;;;;;;21.33;4.50;;;23.80;99.90;;;;;;5051010;28;20265;-85
2021/06/21 08:26:02;;;;;;;7.00;3.53;;;23.40;99.90;;;;;;5050802;28;20206;-79
2021/06/21 08:28:29;;;;;;;8.40;6.18;;;23.20;99.90;;;;;;5050476;28;20286;-81
2021/06/21 08:30:56;;;;;;;8.52;3.90;;;22.80;99.90;;;;;;5050262;28;20218;-83
2021/06/21 08:33:24;;;;;;;10.77;3.80;;;22.80;99.90;;;;;;5050286;28;20636;-78
2021/06/21 08:35:52;;;;;;;9.10;3.40;;;22.70;99.90;;;;;;5050108;28;20230;-79
2021/06/21 08:38:19;;;;;;;14.80;3.63;;;23.00;99.90;;;;;;5041447;28;20214;-81
2021/06/21 08:40:47;;;;;;;11.85;4.55;;;22.90;99.90;;;;;;5050355;28;20207;-79
2021/06/21 08:43:14;;;;;;;7.95;4.45;;;23.10;99.90;;;;;;5050335;28;20256;-82
2021/06/21 08:45:43;;;;;;;7.47;2.67;;;23.40;99.90;;;;;;5050362;28;20214;-80
2021/06/21 08:48:11;;;;;;;12.95;4.50;;;23.60;99.90;;;;;;5050158;28;20211;-80
2021/06/21 08:50:39;;;;;;;7.25;2.95;;;23.90;99.90;;;;;;5049277;28;20207;-79
2021/06/21 08:53:09;;;;;;;13.55;10.07;;;23.80;99.90;;;;;;5045899;28;20269;-77
2021/06/21 08:55:36;;;;;;;7.30;3.13;;;24.10;99.90;;;;;;5049780;28;20230;-79
2021/06/21 08:58:03;;;;;;;7.07;3.13;;;24.40;99.90;;;;;;5050167;28;20203;-79
2021/06/21 09:00:31;;;;;;;5.53;2.42;;;24.40;99.90;;;;;;5050199;28;20293;-80
2021/06/21 09:03:02;;;;;;;3.55;2.15;;;24.50;99.90;;;;;;5050040;28;20209;-81
2021/06/21 09:05:33;;;;;;;5.47;3.10;;;24.50;99.90;;;;;;5049944;28;20276;-78
2021/06/21 09:08:05;;;;;;;6.10;2.55;;;25.40;99.90;;;;;;5049644;28;20206;-80
2021/06/21 09:10:35;;;;;;;11.27;9.98;;;26.10;99.90;;;;;;5046608;28;20215;-81
2021/06/21 09:13:08;;;;;;;5.57;2.58;;;24.70;99.90;;;;;;5042825;28;20577;-80
2021/06/21 09:15:37;;;;;;;5.53;2.67;;;24.30;99.90;;;;;;5047249;28;20230;-78
2021/06/21 09:18:35;;;;;;;3.60;2.25;;;26.10;99.90;;;;;;5048126;28;20206;-80
2021/06/21 09:21:25;;;;;;;3.40;2.28;;;28.10;99.90;;;;;;5044736;28;20207;-79
2021/06/21 09:23:54;;;;;;;3.95;1.98;;;28.40;99.90;;;;;;5048790;28;20223;-85
2021/06/21 09:26:26;;;;;;;7.80;3.28;;;27.00;99.90;;;;;;5048226;28;20207;-78
2021/06/21 09:28:53;;;;;;;2.50;2.05;;;26.90;99.90;;;;;;5048318;28;20237;-80
2021/06/21 09:31:20;;;;;;;1.52;1.15;;;27.30;99.90;;;;;;5049742;28;20215;-78
2021/06/21 09:33:47;;;;;;;6.22;2.60;;;27.00;99.90;;;;;;5049242;28;20276;-76
2021/06/21 09:36:34;;;;;;;2.75;1.92;;;26.40;99.90;;;;;;5048426;28;20231;-77
2021/06/21 09:39:18;;;;;;;3.22;1.90;;;27.20;99.90;;;;;;5047468;28;20209;-78
2021/06/21 09:42:05;;;;;;;8.18;4.90;;;27.50;99.90;;;;;;5047642;28;20259;-78
2021/06/21 09:44:33;;;;;;;4.10;2.72;;;27.00;99.90;;;;;;5049698;28;20228;-76
2021/06/21 09:47:24;;;;;;;2.65;1.23;;;26.90;99.90;;;;;;5049758;28;20225;-79
2021/06/21 09:50:06;;;;;;;4.10;3.13;;;27.10;99.90;;;;;;5042446;28;20207;-78
2021/06/21 09:52:36;;;;;;;4.95;2.22;;;27.10;99.90;;;;;;5040609;28;20210;-78
2021/06/21 09:55:14;;;;;;;3.90;1.70;;;28.10;99.90;;;;;;5048026;28;20975;-78
2021/06/21 09:57:44;;;;;;;37.58;6.07;;;28.80;99.90;;;;;;5051721;28;20210;-86
2021/06/21 10:00:13;;;;;;;6.32;2.22;;;28.30;99.90;;;;;;5053444;28;20211;-81
2021/06/21 10:02:41;;;;;;;4.10;2.88;;;28.60;99.90;;;;;;5052563;28;20676;-85
2021/06/21 10:05:22;;;;;;;5.93;3.03;;;30.60;99.90;;;;;;5053649;28;20268;-81
2021/06/21 10:07:50;;;;;;;35.78;6.28;;;30.10;99.90;;;;;;5053113;28;20255;-80
2021/06/21 10:10:21;;;;;;;4.10;1.65;;;31.00;99.90;;;;;;5053372;28;20275;-83
2021/06/21 10:12:51;;;;;;;57.88;8.60;;;31.40;99.90;;;;;;5052571;28;20553;-84
2021/06/21 10:15:18;;;;;;;9.05;8.43;;;31.90;99.90;;;;;;5053340;28;20233;-80
2021/06/21 10:17:47;;;;;;;3.70;3.42;;;34.50;99.90;;;;;;5052304;28;20731;-86
2021/06/21 10:20:14;;;;;;;7.85;2.13;;;33.00;99.90;;;;;;5053607;28;20201;-84
2021/06/21 10:22:42;;;;;;;5.32;2.58;;;31.70;99.90;;;;;;5052911;28;20362;-81
2021/06/21 10:25:11;;;;;;;2.65;1.85;;;34.20;99.90;;;;;;5052863;28;20279;-84
2021/06/21 10:27:40;;;;;;;4.43;2.33;;;31.00;99.90;;;;;;5052565;28;20210;-80
2021/06/21 10:30:13;;;;;;;2.88;1.88;;;33.00;99.90;;;;;;5050246;28;20388;-76
2021/06/21 10:32:40;;;;;;;4.15;1.80;;;34.40;99.90;;;;;;5047605;28;20209;-81
2021/06/21 10:35:09;;;;;;;4.20;1.85;;;33.20;99.90;;;;;;5052553;28;20242;-77
2021/06/21 10:37:36;;;;;;;2.65;1.80;;;33.00;99.90;;;;;;5052605;28;20221;-77
2021/06/21 10:40:08;;;;;;;8.45;2.72;;;29.80;99.90;;;;;;5053331;28;20237;-82
2021/06/21 10:42:42;;;;;;;3.25;2.50;;;28.70;99.90;;;;;;5053595;28;20206;-88
2021/06/21 10:45:19;;;;;;;5.07;1.75;;;27.60;99.90;;;;;;5052969;28;20206;-83
2021/06/21 10:47:47;;;;;;;6.88;1.73;;;27.50;99.90;;;;;;5052165;28;20206;-84
2021/06/21 10:50:23;;;;;;;4.60;2.00;;;27.60;99.90;;;;;;5052968;28;20207;-85
2021/06/21 10:53:08;;;;;;;3.42;1.75;;;26.90;99.90;;;;;;5044257;28;20271;-87
2021/06/21 10:55:42;;;;;;;8.45;3.22;;;26.50;99.90;;;;;;5052698;28;20288;-78
2021/06/21 10:58:45;;;;;;;2.78;2.20;;;27.00;99.90;;;;;;5052738;28;20549;-79
2021/06/21 11:01:18;;;;;;;6.20;2.72;;;27.20;99.90;;;;;;5041703;28;20205;-76
2021/06/21 11:03:45;;;;;;;6.78;2.00;;;27.20;99.90;;;;;;5051606;28;20203;-78
2021/06/21 11:06:40;;;;;;;3.35;2.22;;;27.30;99.90;;;;;;5052198;28;20585;-79
2021/06/21 11:09:09;;;;;;;2.85;2.17;;;27.40;99.90;;;;;;5016471;28;20737;-81
2021/06/21 11:11:48;;;;;;;9.30;2.90;;;27.90;99.90;;;;;;5047564;28;20626;-89
2021/06/21 11:14:19;;;;;;;3.58;1.75;;;27.80;99.90;;;;;;5051909;28;20246;-80
2021/06/21 11:16:49;;;;;;;8.88;2.60;;;27.20;99.90;;;;;;5052049;28;20737;-79
2021/06/21 11:19:27;;;;;;;5.07;2.35;;;27.00;99.90;;;;;;5048362;28;20202;-88
2021/06/21 11:21:56;;;;;;;4.18;1.70;;;27.40;99.90;;;;;;5052108;28;20253;-78
2021/06/21 11:24:46;;;;;;;4.90;1.85;;;27.40;99.90;;;;;;5051236;28;20736;-81
2021/06/21 11:27:15;;;;;;;5.70;1.77;;;26.80;99.90;;;;;;5043233;28;20666;-86
2021/06/21 11:29:44;;;;;;;5.72;1.88;;;26.50;99.90;;;;;;5049351;28;20207;-81
2021/06/21 11:32:13;;;;;;;3.30;2.35;;;26.30;99.90;;;;;;5051799;28;20313;-84
2021/06/21 11:34:49;;;;;;;8.77;2.20;;;26.80;99.90;;;;;;5048296;28;20340;-83
2021/06/21 11:37:35;;;;;;;7.32;2.17;;;26.80;99.90;;;;;;5049470;28;20210;-81
2021/06/21 11:40:26;;;;;;;3.72;1.45;;;26.20;99.90;;;;;;5051721;28;20202;-83
2021/06/21 11:43:18;;;;;;;4.47;2.40;;;26.80;99.90;;;;;;5050614;28;20289;-83
2021/06/21 11:45:53;;;;;;;4.50;2.15;;;27.00;99.90;;;;;;5029927;28;20745;-81
2021/06/21 11:48:23;;;;;;;7.60;2.60;;;27.20;99.90;;;;;;5045751;28;20210;-85
2021/06/21 11:50:50;;;;;;;5.88;1.90;;;27.00;99.90;;;;;;5041817;28;20222;-78
2021/06/21 11:53:17;;;;;;;6.05;1.83;;;26.90;99.90;;;;;;5040316;28;20728;-80
2021/06/21 11:55:44;;;;;;;5.13;1.85;;;27.10;99.90;;;;;;5050652;28;20231;-84
2021/06/21 11:58:11;;;;;;;4.90;1.77;;;26.80;99.90;;;;;;5050469;28;20206;-77
2021/06/21 12:00:39;;;;;;;4.05;2.10;;;27.00;99.90;;;;;;5049745;28;20202;-78
2021/06/21 12:03:08;;;;;;;2.67;1.90;;;27.50;99.90;;;;;;5049865;28;20264;-80
2021/06/21 12:05:37;;;;;;;6.50;2.28;;;27.20;99.90;;;;;;5049694;28;20938;-78
2021/06/21 12:08:14;;;;;;;3.95;1.77;;;26.80;99.90;;;;;;5044214;28;20203;-78
2021/06/21 12:10:41;;;;;;;3.45;2.38;;;26.90;99.90;;;;;;5044570;28;20709;-75
2021/06/21 12:13:08;;;;;;;8.98;8.15;;;27.00;99.90;;;;;;5050666;28;20721;-78
2021/06/21 12:15:39;;;;;;;4.70;2.42;;;27.50;99.90;;;;;;5049152;28;20226;-81
2021/06/21 12:18:07;;;;;;;4.72;2.38;;;27.50;99.90;;;;;;5048856;28;20628;-84
2021/06/21 12:20:36;;;;;;;4.55;1.90;;;27.70;99.90;;;;;;5045890;28;20252;-83
2021/06/21 12:23:07;;;;;;;3.30;1.77;;;27.40;99.90;;;;;;5050762;28;20743;-83
2021/06/21 12:25:37;;;;;;;3.90;1.95;;;26.90;99.90;;;;;;5050400;28;20215;-84
2021/06/21 12:28:16;;;;;;;9.27;8.68;;;26.80;99.90;;;;;;5046437;28;20241;-80
2021/06/21 12:30:46;;;;;;;6.18;2.45;;;27.10;99.90;;;;;;5048512;28;20202;-81
2021/06/21 12:33:32;;;;;;;5.07;1.55;;;27.60;99.90;;;;;;5047534;28;20272;-79
2021/06/21 12:36:20;;;;;;;4.13;2.03;;;28.30;99.90;;;;;;5049697;28;20253;-80
2021/06/21 12:38:56;;;;;;;3.33;1.90;;;28.30;99.90;;;;;;5048650;28;20257;-77
2021/06/21 12:41:25;;;;;;;4.03;3.42;;;28.00;99.90;;;;;;5046454;28;20252;-81
2021/06/21 12:43:57;;;;;;;2.65;1.73;;;28.20;99.90;;;;;;5041493;28;20259;-80
2021/06/21 12:46:26;;;;;;;20.63;6.47;;;28.40;99.90;;;;;;5047688;28;20806;-80
2021/06/21 12:48:54;;;;;;;7.85;2.05;;;28.80;99.90;;;;;;5041330;28;20674;-75
2021/06/21 12:51:23;;;;;;;8.27;2.63;;;27.80;99.90;;;;;;5049245;28;20216;-76
2021/06/21 12:53:52;;;;;;;6.45;1.85;;;27.50;99.90;;;;;;5048795;28;20211;-82
2021/06/21 12:56:28;;;;;;;6.80;2.20;;;27.20;99.90;;;;;;5046736;28;20658;-79
2021/06/21 12:58:57;;;;;;;3.67;1.65;;;27.20;99.90;;;;;;5049892;28;20232;-77